createdAt,value
2018-04-02T01:14:49.866Z,86.40
2018-04-02T01:18:12.707Z,86.40
2018-04-02T01:21:35.553Z,86.90
2018-04-02T01:24:58.426Z,86.60
2018-04-02T01:28:21.259Z,86.60
2018-04-02T01:31:44.098Z,86.50
2018-04-02T01:35:06.987Z,86.80
2018-04-02T01:38:30.593Z,86.80
2018-04-02T01:41:53.447Z,86.70
2018-04-02T01:45:16.301Z,86.70
2018-04-02T01:48:39.142Z,87.00
2018-04-02T01:52:02.094Z,87.50
2018-04-02T01:55:24.923Z,87.00
2018-04-02T01:58:47.748Z,87.50
2018-04-02T02:02:10.642Z,87.40
2018-04-02T02:05:33.511Z,86.70
2018-04-02T02:08:57.112Z,87.20
2018-04-02T02:12:19.959Z,87.20
2018-04-02T02:15:42.854Z,87.30
2018-04-02T02:19:05.661Z,87.90
2018-04-02T02:22:28.497Z,87.20
2018-04-02T02:25:51.354Z,87.50
2018-04-02T02:29:14.183Z,87.60
2018-04-02T02:32:37.029Z,87.90
2018-04-02T02:35:59.904Z,87.90
2018-04-02T02:39:22.736Z,87.60
2018-04-02T02:42:45.588Z,87.90
2018-04-02T02:46:08.475Z,87.70
2018-04-02T02:49:32.074Z,87.70
2018-04-02T02:52:54.931Z,87.60
2018-04-02T02:56:17.787Z,87.90
2018-04-02T02:59:41.644Z,87.80
2018-04-02T03:03:04.487Z,87.70
2018-04-02T03:06:27.360Z,88.10
2018-04-02T03:09:50.196Z,88.30
2018-04-02T03:13:13.047Z,88.00
2018-04-02T03:16:35.884Z,88.30
2018-04-02T03:19:58.755Z,87.80
2018-04-02T03:23:21.573Z,87.50
2018-04-02T03:26:44.417Z,88.30
2018-04-02T03:30:07.282Z,88.40
2018-04-02T03:33:30.209Z,88.60
2018-04-02T03:36:53.042Z,88.30
2018-04-02T03:40:15.892Z,87.80
2018-04-02T03:43:38.728Z,88.30
2018-04-02T03:47:01.588Z,88.90
2018-04-02T03:50:24.445Z,88.30
2018-04-02T03:53:47.269Z,88.80
2018-04-02T03:57:10.141Z,88.80
2018-04-02T04:00:32.970Z,88.30
2018-04-02T04:03:56.642Z,88.40
2018-04-02T04:07:19.462Z,88.40
2018-04-02T04:10:42.318Z,88.70
2018-04-02T04:14:05.168Z,88.70
2018-04-02T04:17:28.010Z,88.70
2018-04-02T04:20:50.896Z,88.80
2018-04-02T04:24:13.707Z,88.80
2018-04-02T04:27:37.363Z,88.70
2018-04-02T04:31:00.189Z,88.70
2018-04-02T04:34:23.797Z,89.00
2018-04-02T04:37:46.626Z,88.60
2018-04-02T04:41:09.482Z,89.00
2018-04-02T04:44:32.408Z,89.70
2018-04-02T04:47:55.246Z,89.50
2018-04-02T04:51:18.129Z,89.40
2018-04-02T04:54:40.960Z,88.90
2018-04-02T04:58:03.792Z,89.20
2018-04-02T05:01:26.622Z,89.50
2018-04-02T05:04:49.508Z,89.50
2018-04-02T05:08:12.336Z,89.90
2018-04-02T05:11:35.184Z,89.20
2018-04-02T05:14:58.020Z,89.20
2018-04-02T05:18:20.884Z,89.20
2018-04-02T05:21:43.738Z,89.10
2018-04-02T05:25:06.564Z,89.60
2018-04-02T05:28:29.430Z,90.30
2018-04-02T05:31:52.260Z,90.10
2018-04-02T05:35:15.150Z,90.00
2018-04-02T05:38:37.962Z,89.80
2018-04-02T05:42:00.818Z,90.90
2018-04-02T05:45:23.698Z,90.20
2018-04-02T05:48:46.538Z,88.90
2018-04-02T05:52:09.399Z,88.10
2018-04-02T05:55:32.278Z,88.70
2018-04-02T05:58:55.121Z,87.70
2018-04-02T06:02:17.982Z,88.20
2018-04-02T06:05:40.829Z,88.30
2018-04-02T06:09:03.768Z,87.70
2018-04-02T06:12:26.698Z,87.90
2018-04-02T06:15:49.575Z,87.80
2018-04-02T06:19:12.446Z,85.70
2018-04-02T06:22:35.294Z,86.10
2018-04-02T06:25:58.140Z,85.70
2018-04-02T06:29:21.110Z,86.10
2018-04-02T06:32:44.788Z,86.30
2018-04-02T06:36:07.704Z,86.10
2018-04-02T06:39:30.561Z,85.70
2018-04-02T06:42:53.408Z,85.40
2018-04-02T06:46:16.258Z,85.70
2018-04-02T06:49:39.092Z,85.80
2018-04-02T06:53:01.952Z,84.60
2018-04-02T06:56:24.796Z,84.20
2018-04-02T06:59:47.637Z,83.40
2018-04-02T07:03:10.502Z,82.50
2018-04-02T07:06:33.362Z,81.70
2018-04-02T07:09:56.272Z,80.20
2018-04-02T07:13:19.106Z,80.10
2018-04-02T07:16:41.956Z,80.20
2018-04-02T07:20:04.855Z,79.20
2018-04-02T07:23:27.902Z,79.40
2018-04-02T07:26:51.527Z,77.30
2018-04-02T07:30:14.378Z,77.20
2018-04-02T07:33:37.266Z,77.00
2018-04-02T07:37:00.128Z,76.20
2018-04-02T07:40:23.004Z,76.50
2018-04-02T07:43:45.824Z,75.50
2018-04-02T07:47:08.662Z,75.10
2018-04-02T07:50:31.513Z,74.60
2018-04-02T07:53:54.394Z,74.60
2018-04-02T07:57:17.215Z,74.40
2018-04-02T08:00:40.119Z,72.20
2018-04-02T08:04:02.989Z,72.00
2018-04-02T08:07:25.846Z,72.30
2018-04-02T08:10:48.754Z,70.60
2018-04-02T08:14:11.750Z,70.40
2018-04-02T08:17:34.614Z,69.70
2018-04-02T08:20:57.448Z,68.10
2018-04-02T08:24:20.321Z,67.30
2018-04-02T08:27:43.220Z,66.70
2018-04-02T08:31:06.062Z,67.90
2018-04-02T08:34:28.925Z,67.30
2018-04-02T08:37:51.783Z,66.70
2018-04-02T08:41:14.680Z,65.90
2018-04-02T08:44:37.550Z,64.90
2018-04-02T08:48:00.482Z,63.10
2018-04-02T08:51:24.184Z,61.10
2018-04-02T08:54:47.019Z,61.00
2018-04-02T08:58:10.142Z,61.60
2018-04-02T09:01:33.077Z,59.80
2018-04-02T09:04:55.954Z,60.60
2018-04-02T09:08:19.579Z,62.50
2018-04-02T09:11:42.434Z,62.50
2018-04-02T09:15:05.265Z,62.10
2018-04-02T09:18:28.101Z,61.40
2018-04-02T09:21:50.979Z,61.60
2018-04-02T09:25:13.806Z,60.60
2018-04-02T09:28:36.747Z,59.90
2018-04-02T09:31:59.584Z,59.70
2018-04-02T09:35:22.649Z,59.20
2018-04-02T09:38:45.530Z,58.60
2018-04-02T09:42:10.696Z,58.00
2018-04-02T09:45:33.547Z,56.70
2018-04-02T09:48:56.451Z,56.60
2018-04-02T09:52:19.582Z,53.90
2018-04-02T09:55:42.481Z,51.70
2018-04-02T09:59:05.378Z,53.60
2018-04-02T10:06:25.066Z,49.00
2018-04-02T10:09:48.180Z,47.90
2018-04-02T10:13:11.790Z,49.90
2018-04-02T10:16:34.629Z,49.90
2018-04-02T10:19:57.515Z,48.50
2018-04-02T10:23:21.162Z,44.40
2018-04-02T10:26:44.815Z,44.70
2018-04-02T10:30:07.626Z,44.50
2018-04-02T10:33:30.588Z,44.80
2018-04-02T10:36:54.193Z,43.70
2018-04-02T10:40:17.041Z,43.60
2018-04-02T10:43:39.904Z,44.10
2018-04-02T10:47:02.759Z,40.50
2018-04-02T10:50:25.659Z,38.60
2018-04-02T10:53:48.568Z,39.80
2018-04-02T10:57:11.426Z,38.50
2018-04-02T11:00:34.278Z,38.80
2018-04-02T11:03:57.143Z,38.80
2018-04-02T11:07:20.114Z,37.60
2018-04-02T11:10:43.112Z,37.20
2018-04-02T11:14:05.954Z,35.30
2018-04-02T11:17:29.734Z,34.10
2018-04-02T11:20:52.637Z,32.70
2018-04-02T11:24:23.022Z,33.30
2018-04-02T11:27:48.108Z,32.70
2018-04-02T11:31:10.956Z,32.10
2018-04-02T11:34:34.339Z,30.60
2018-04-02T11:37:57.515Z,32.60
2018-04-02T11:41:20.376Z,31.30
2018-04-02T11:44:43.234Z,30.80
2018-04-02T11:48:06.078Z,30.00
2018-04-02T11:51:28.922Z,29.70
2018-04-02T11:54:51.840Z,31.20
2018-04-02T11:58:14.683Z,32.00
2018-04-02T12:01:37.544Z,30.90
2018-04-02T12:05:00.380Z,31.50
2018-04-02T12:08:23.685Z,32.80
2018-04-02T12:11:46.533Z,32.30
2018-04-02T12:15:09.361Z,31.30
2018-04-02T12:18:32.286Z,31.70
2018-04-02T12:21:55.928Z,33.00
2018-04-02T12:25:18.931Z,31.10
2018-04-02T12:28:41.846Z,29.30
2018-04-02T12:32:04.768Z,29.40
2018-04-02T12:35:27.904Z,29.70
2018-04-02T12:38:50.768Z,29.50
2018-04-02T12:42:13.631Z,29.20
2018-04-02T12:45:36.452Z,29.10
2018-04-02T12:48:59.300Z,29.10
2018-04-02T12:52:22.182Z,30.60
2018-04-02T12:55:45.927Z,29.80
2018-04-02T12:59:08.766Z,29.80
2018-04-02T13:06:44.632Z,29.30
2018-04-02T13:10:07.574Z,29.60
2018-04-02T13:13:30.432Z,29.50
2018-04-02T13:16:53.283Z,29.10
2018-04-02T13:20:16.710Z,28.60
2018-04-02T13:23:39.548Z,29.10
2018-04-02T13:27:02.419Z,28.50
2018-04-02T13:30:25.318Z,29.20
2018-04-02T13:33:48.158Z,29.00
2018-04-02T13:37:11.016Z,29.90
2018-04-02T13:40:33.870Z,29.00
2018-04-02T13:43:56.710Z,29.20
2018-04-02T13:47:19.552Z,29.00
2018-04-02T13:50:42.554Z,29.20
2018-04-02T13:54:05.845Z,30.00
2018-04-02T13:57:28.738Z,29.30
2018-04-02T14:00:51.623Z,29.70
2018-04-02T14:04:14.553Z,29.30
2018-04-02T14:07:37.446Z,30.10
2018-04-02T14:11:00.373Z,29.10
2018-04-02T14:14:23.936Z,29.30
2018-04-02T14:17:46.891Z,29.20
2018-04-02T14:21:10.647Z,30.70
2018-04-02T14:24:33.494Z,30.00
2018-04-02T14:27:57.370Z,30.00
2018-04-02T14:31:20.304Z,30.70
2018-04-02T14:34:43.282Z,31.20
2018-04-02T14:38:08.336Z,31.50
2018-04-02T14:41:31.156Z,31.20
2018-04-02T14:44:54.086Z,31.50
2018-04-02T14:48:16.958Z,31.40
2018-04-02T14:51:40.596Z,31.20
2018-04-02T14:55:03.534Z,31.20
2018-04-02T14:58:27.150Z,31.70
2018-04-02T15:01:50.008Z,31.70
2018-04-02T15:05:13.284Z,31.30
2018-04-02T15:08:37.140Z,31.50
2018-04-02T15:12:00.376Z,31.00
2018-04-02T15:15:23.207Z,30.90
2018-04-02T15:18:46.128Z,31.30
2018-04-02T15:22:08.971Z,31.70
2018-04-02T15:25:31.959Z,31.90
2018-04-02T15:28:55.028Z,32.10
2018-04-02T15:32:17.884Z,34.30
2018-04-02T15:35:40.737Z,37.50
2018-04-02T15:39:03.584Z,38.30
2018-04-02T15:42:26.432Z,38.20
2018-04-02T15:45:49.343Z,40.30
2018-04-02T15:49:12.586Z,40.40
2018-04-02T15:52:36.366Z,40.20
2018-04-02T15:55:59.213Z,40.20
2018-04-02T15:59:22.045Z,40.40
2018-04-02T16:02:45.014Z,40.50
2018-04-02T16:06:07.970Z,40.60
2018-04-02T16:09:31.640Z,39.50
2018-04-02T16:12:55.239Z,37.60
2018-04-02T16:16:18.132Z,37.50
2018-04-02T16:19:40.974Z,37.10
2018-04-02T16:23:03.912Z,37.50
2018-04-02T16:26:27.553Z,37.80
2018-04-02T16:29:50.441Z,37.80
2018-04-02T16:33:13.306Z,38.30
2018-04-02T16:36:36.145Z,38.80
2018-04-02T16:39:59.068Z,37.30
2018-04-02T16:43:22.834Z,37.40
2018-04-02T16:46:45.716Z,36.50
2018-04-02T16:50:08.548Z,36.70
2018-04-02T16:53:33.528Z,36.40
2018-04-02T16:56:59.487Z,37.70
2018-04-02T17:00:24.204Z,37.60
2018-04-02T17:03:47.063Z,37.70
2018-04-02T17:07:09.940Z,39.00
2018-04-02T17:10:32.872Z,40.40
2018-04-02T17:13:56.484Z,43.10
2018-04-02T17:17:19.363Z,43.00
2018-04-02T17:20:42.338Z,45.00
2018-04-02T17:24:05.247Z,45.10
2018-04-02T17:27:28.982Z,45.00
2018-04-02T17:30:52.656Z,45.80
2018-04-02T17:34:16.272Z,46.60
2018-04-02T17:37:39.236Z,46.60
2018-04-02T17:41:02.112Z,47.70
2018-04-02T17:44:25.032Z,48.90
2018-04-02T17:47:47.880Z,47.70
2018-04-02T17:51:10.749Z,47.60
2018-04-02T17:54:34.398Z,48.40
2018-04-02T17:57:58.030Z,49.00
2018-04-02T18:01:20.895Z,49.00
2018-04-02T18:04:46.850Z,50.80
2018-04-02T18:08:09.681Z,50.70
2018-04-02T18:11:32.560Z,51.50
2018-04-02T18:14:55.456Z,51.80
2018-04-02T18:18:18.328Z,52.70
2018-04-02T18:21:41.372Z,53.80
2018-04-02T18:25:05.241Z,53.90
2018-04-02T18:28:28.130Z,55.00
2018-04-02T18:31:51.859Z,55.40
2018-04-02T18:35:14.778Z,55.30
2018-04-02T18:38:38.446Z,54.80
2018-04-02T18:42:01.304Z,54.70
2018-04-02T18:45:24.158Z,54.20
2018-04-02T18:48:47.084Z,54.90
2018-04-02T18:52:09.906Z,56.20
2018-04-02T18:55:32.768Z,55.60
2018-04-02T18:58:55.613Z,56.00
2018-04-02T19:02:18.502Z,55.80
2018-04-02T19:05:42.139Z,57.10
2018-04-02T19:09:05.962Z,57.10
2018-04-02T19:12:30.046Z,56.90
2018-04-02T19:15:53.054Z,56.90
2018-04-02T19:19:15.917Z,56.70
2018-04-02T19:22:39.619Z,56.70
2018-04-02T19:26:03.309Z,57.30
2018-04-02T19:29:26.227Z,57.30
2018-04-02T19:32:50.046Z,56.80
2018-04-02T19:36:13.313Z,56.60
2018-04-02T19:39:36.249Z,57.20
2018-04-02T19:42:59.119Z,57.70
2018-04-02T19:46:22.039Z,58.50
2018-04-02T19:49:45.019Z,58.80
2018-04-02T19:53:07.868Z,57.40
2018-04-02T19:56:30.710Z,57.10
2018-04-02T19:59:53.627Z,57.30
2018-04-02T20:03:16.531Z,57.60
2018-04-02T20:06:40.141Z,58.60
2018-04-02T20:10:02.995Z,58.60
2018-04-02T20:13:25.909Z,59.00
2018-04-02T20:16:48.812Z,60.30
2018-04-02T20:20:11.697Z,60.40
2018-04-02T20:23:35.342Z,61.40
2018-04-02T20:26:58.313Z,61.10
2018-04-02T20:30:21.170Z,62.30
2018-04-02T20:33:44.001Z,61.60
2018-04-02T20:37:06.831Z,62.00
2018-04-02T20:40:29.724Z,62.30
2018-04-02T20:43:52.609Z,62.10
2018-04-02T20:47:15.641Z,62.50
2018-04-02T20:50:38.463Z,62.50
2018-04-02T20:54:01.337Z,63.20
2018-04-02T20:57:24.262Z,62.50
2018-04-02T21:00:47.880Z,61.90
2018-04-02T21:04:10.716Z,61.90
2018-04-02T21:07:33.592Z,61.60
2018-04-02T21:10:56.426Z,60.20
2018-04-02T21:14:19.274Z,61.10
2018-04-02T21:17:42.718Z,60.40
2018-04-02T21:21:05.563Z,61.40
2018-04-02T21:24:28.480Z,61.40
2018-04-02T21:27:51.345Z,61.80
2018-04-02T21:31:14.247Z,62.50
2018-04-02T21:34:37.075Z,62.50
2018-04-02T21:38:00.747Z,63.40
2018-04-02T21:41:24.040Z,63.30
2018-04-02T21:44:47.022Z,62.80
2018-04-02T21:48:10.003Z,62.90
2018-04-02T21:51:33.053Z,63.60
2018-04-02T21:54:55.875Z,62.80
2018-04-02T21:58:18.812Z,63.20
2018-04-02T22:01:42.440Z,63.00
2018-04-02T22:05:05.328Z,63.70
2018-04-02T22:08:28.180Z,63.20
2018-04-02T22:11:51.028Z,63.20
2018-04-02T22:15:13.879Z,62.90
2018-04-02T22:18:39.518Z,62.40
2018-04-02T22:22:03.158Z,62.80
2018-04-02T22:25:26.859Z,62.30
2018-04-02T22:28:49.710Z,63.10
2018-04-02T22:32:12.552Z,62.70
2018-04-02T22:35:35.424Z,62.60
2018-04-02T22:38:58.334Z,62.20
2018-04-02T22:42:21.209Z,61.70
2018-04-02T22:45:44.811Z,62.00
2018-04-02T22:49:07.665Z,62.00
2018-04-02T22:52:30.523Z,62.50
2018-04-02T22:55:53.347Z,61.10
2018-04-02T22:59:16.207Z,61.80
2018-04-02T23:02:39.053Z,62.00
2018-04-02T23:06:01.917Z,61.30
2018-04-02T23:09:24.776Z,61.90
2018-04-02T23:12:48.424Z,62.10
2018-04-02T23:16:12.062Z,62.10
2018-04-02T23:19:34.910Z,61.30
2018-04-02T23:22:57.815Z,61.20
2018-04-02T23:26:20.707Z,59.30
2018-04-02T23:29:44.306Z,59.90
2018-04-02T23:33:07.189Z,59.80
2018-04-02T23:36:30.086Z,59.00
2018-04-02T23:39:52.938Z,58.10
2018-04-02T23:43:15.791Z,57.20
2018-04-02T23:46:38.628Z,57.90
2018-04-02T23:50:01.487Z,57.30
2018-04-02T23:53:26.883Z,57.40
2018-04-02T23:56:49.818Z,58.20
